sensor_id;sensor_type;location;lat;lon;timestamp;pressure;altitude;pressure_sealevel;temperature;humidity
22830;BME280;11581;51.250;6.778;2023-02-18T00:00:07;101878.56;;;14.71;64.54
22830;BME280;11581;51.250;6.778;2023-02-18T00:02:34;101874.91;;;14.72;64.37
22830;BME280;11581;51.250;6.778;2023-02-18T00:05:01;101834.19;;;14.40;64.40
22830;BME280;11581;51.250;6.778;2023-02-18T00:07:33;101878.56;;;14.71;64.92
22830;BME280;11581;51.250;6.778;2023-02-18T00:10:02;101875.72;;;14.73;64.81
22830;BME280;11581;51.250;6.778;2023-02-18T00:12:31;101818.66;;;14.34;64.50
22830;BME280;11581;51.250;6.778;2023-02-18T00:14:58;101865.13;;;14.71;64.40
22830;BME280;11581;51.250;6.778;2023-02-18T00:17:25;101876.88;;;14.70;64.60
22830;BME280;11581;51.250;6.778;2023-02-18T00:19:53;101854.53;;;14.70;64.64
22830;BME280;11581;51.250;6.778;2023-02-18T00:22:22;101869.81;;;14.69;64.62
22830;BME280;11581;51.250;6.778;2023-02-18T00:24:52;101867.81;;;14.71;64.54
22830;BME280;11581;51.250;6.778;2023-02-18T00:27:28;101852.00;;;14.68;64.89
22830;BME280;11581;51.250;6.778;2023-02-18T00:29:56;101806.91;;;14.45;64.96
22830;BME280;11581;51.250;6.778;2023-02-18T00:32:25;101821.13;;;14.55;64.84
22830;BME280;11581;51.250;6.778;2023-02-18T00:34:54;101817.00;;;14.60;64.80
22830;BME280;11581;51.250;6.778;2023-02-18T00:37:22;101825.28;;;14.67;64.86
22830;BME280;11581;51.250;6.778;2023-02-18T00:39:51;101833.34;;;14.67;65.12
22830;BME280;11581;51.250;6.778;2023-02-18T00:42:19;101837.75;;;14.68;64.98
22830;BME280;11581;51.250;6.778;2023-02-18T00:44:49;101829.84;;;14.66;65.17
22830;BME280;11581;51.250;6.778;2023-02-18T00:47:16;101831.53;;;14.67;64.91
22830;BME280;11581;51.250;6.778;2023-02-18T00:49:43;101832.53;;;14.66;64.94
22830;BME280;11581;51.250;6.778;2023-02-18T00:52:10;101822.50;;;14.59;65.04
22830;BME280;11581;51.250;6.778;2023-02-18T00:54:40;101829.84;;;14.66;65.05
22830;BME280;11581;51.250;6.778;2023-02-18T00:57:10;101831.81;;;14.64;65.04
22830;BME280;11581;51.250;6.778;2023-02-18T00:59:37;101838.91;;;14.65;65.14
22830;BME280;11581;51.250;6.778;2023-02-18T01:02:05;101815.69;;;14.64;65.16
22830;BME280;11581;51.250;6.778;2023-02-18T01:04:33;101821.94;;;14.65;65.12
22830;BME280;11581;51.250;6.778;2023-02-18T01:07:00;101783.41;;;14.47;65.16
22830;BME280;11581;51.250;6.778;2023-02-18T01:09:28;101815.69;;;14.64;65.27
22830;BME280;11581;51.250;6.778;2023-02-18T01:11:54;101769.06;;;14.38;65.01
22830;BME280;11581;51.250;6.778;2023-02-18T01:14:21;101801.31;;;14.65;65.01
22830;BME280;11581;51.250;6.778;2023-02-18T01:16:50;101709.84;;;14.03;65.23
22830;BME280;11581;51.250;6.778;2023-02-18T01:19:19;101803.28;;;14.63;65.51
22830;BME280;11581;51.250;6.778;2023-02-18T01:21:47;101814.03;;;14.63;65.06
22830;BME280;11581;51.250;6.778;2023-02-18T01:24:15;101801.59;;;14.62;65.20
22830;BME280;11581;51.250;6.778;2023-02-18T01:26:43;101660.16;;;13.72;65.06
22830;BME280;11581;51.250;6.778;2023-02-18T01:29:10;101781.19;;;14.42;65.30
22830;BME280;11581;51.250;6.778;2023-02-18T01:31:39;101801.19;;;14.57;65.27
22830;BME280;11581;51.250;6.778;2023-02-18T01:34:06;101783.84;;;14.52;65.14
22830;BME280;11581;51.250;6.778;2023-02-18T01:36:34;101790.44;;;14.57;65.30
22830;BME280;11581;51.250;6.778;2023-02-18T01:39:03;101791.31;;;14.58;65.40
22830;BME280;11581;51.250;6.778;2023-02-18T01:41:33;101789.44;;;14.58;65.64
22830;BME280;11581;51.250;6.778;2023-02-18T01:44:11;101765.06;;;14.52;65.85
22830;BME280;11581;51.250;6.778;2023-02-18T01:46:38;101783.78;;;14.61;65.17
22830;BME280;11581;51.250;6.778;2023-02-18T01:49:06;101781.94;;;14.62;65.21
22830;BME280;11581;51.250;6.778;2023-02-18T01:51:38;101740.53;;;14.37;65.46
22830;BME280;11581;51.250;6.778;2023-02-18T01:54:09;101707.38;;;14.19;65.53
22830;BME280;11581;51.250;6.778;2023-02-18T01:56:40;101776.72;;;14.60;65.51
22830;BME280;11581;51.250;6.778;2023-02-18T01:59:11;101775.03;;;14.59;65.39
22830;BME280;11581;51.250;6.778;2023-02-18T02:01:41;101773.34;;;14.58;65.34
22830;BME280;11581;51.250;6.778;2023-02-18T02:04:09;101762.75;;;14.57;65.38
22830;BME280;11581;51.250;6.778;2023-02-18T02:06:38;101763.91;;;14.54;65.52
22830;BME280;11581;51.250;6.778;2023-02-18T02:09:08;101745.16;;;14.45;65.51
22830;BME280;11581;51.250;6.778;2023-02-18T02:14:44;101760.81;;;14.49;66.29
22830;BME280;11581;51.250;6.778;2023-02-18T02:17:21;101738.16;;;14.34;66.10
22830;BME280;11581;51.250;6.778;2023-02-18T02:23:21;101687.72;;;14.01;66.68
22830;BME280;11581;51.250;6.778;2023-02-18T02:26:20;101746.59;;;14.39;67.00
22830;BME280;11581;51.250;6.778;2023-02-18T02:29:17;101731.09;;;14.33;66.97
22830;BME280;11581;51.250;6.778;2023-02-18T02:32:02;101737.00;;;14.37;67.30
22830;BME280;11581;51.250;6.778;2023-02-18T02:34:55;101701.50;;;14.16;67.61
22830;BME280;11581;51.250;6.778;2023-02-18T02:37:32;101672.19;;;13.95;67.47
22830;BME280;11581;51.250;6.778;2023-02-18T02:40:11;101728.28;;;14.25;67.52
22830;BME280;11581;51.250;6.778;2023-02-18T02:42:47;101732.25;;;14.21;67.74
22830;BME280;11581;51.250;6.778;2023-02-18T02:45:25;101712.22;;;14.06;68.16
22830;BME280;11581;51.250;6.778;2023-02-18T02:48:00;101730.00;;;14.17;68.18
22830;BME280;11581;51.250;6.778;2023-02-18T02:50:37;101707.59;;;14.08;68.39
22830;BME280;11581;51.250;6.778;2023-02-18T02:53:13;101673.06;;;13.86;68.48
22830;BME280;11581;51.250;6.778;2023-02-18T02:55:45;101728.59;;;14.13;67.91
22830;BME280;11581;51.250;6.778;2023-02-18T02:58:14;101718.84;;;14.12;68.35
22830;BME280;11581;51.250;6.778;2023-02-18T03:00:54;101707.97;;;14.13;68.98
22830;BME280;11581;51.250;6.778;2023-02-18T03:03:50;101698.72;;;13.98;69.12
22830;BME280;11581;51.250;6.778;2023-02-18T03:06:41;101710.66;;;14.13;69.10
22830;BME280;11581;51.250;6.778;2023-02-18T03:09:21;101692.22;;;14.01;68.94
22830;BME280;11581;51.250;6.778;2023-02-18T03:11:55;101686.84;;;14.01;68.70
22830;BME280;11581;51.250;6.778;2023-02-18T03:14:26;101698.94;;;14.14;68.60
22830;BME280;11581;51.250;6.778;2023-02-18T03:16:59;101693.59;;;14.14;68.16
22830;BME280;11581;51.250;6.778;2023-02-18T03:19:34;101704.31;;;14.14;68.19
22830;BME280;11581;51.250;6.778;2023-02-18T03:22:06;101699.09;;;14.13;68.70
22830;BME280;11581;51.250;6.778;2023-02-18T03:24:38;101692.88;;;14.12;68.65
22830;BME280;11581;51.250;6.778;2023-02-18T03:27:09;101647.94;;;13.87;68.62
22830;BME280;11581;51.250;6.778;2023-02-18T03:29:41;101643.72;;;13.85;68.66
22830;BME280;11581;51.250;6.778;2023-02-18T03:32:11;101685.53;;;14.14;68.78
22830;BME280;11581;51.250;6.778;2023-02-18T03:34:43;101622.03;;;13.78;68.55
22830;BME280;11581;51.250;6.778;2023-02-18T03:37:15;101658.22;;;14.01;68.61
22830;BME280;11581;51.250;6.778;2023-02-18T03:39:49;101609.88;;;13.84;68.76
22830;BME280;11581;51.250;6.778;2023-02-18T03:42:17;101683.16;;;14.11;68.57
22830;BME280;11581;51.250;6.778;2023-02-18T03:44:44;101670.03;;;14.08;68.76
22830;BME280;11581;51.250;6.778;2023-02-18T03:47:11;101656.91;;;14.05;68.92
22830;BME280;11581;51.250;6.778;2023-02-18T03:49:38;101663.41;;;14.03;68.95
22830;BME280;11581;51.250;6.778;2023-02-18T03:52:05;101644.78;;;14.01;69.22
22830;BME280;11581;51.250;6.778;2023-02-18T03:54:35;101640.53;;;13.99;69.62
22830;BME280;11581;51.250;6.778;2023-02-18T03:57:02;101645.38;;;13.95;69.52
22830;BME280;11581;51.250;6.778;2023-02-18T03:59:29;101637.47;;;13.94;69.60
22830;BME280;11581;51.250;6.778;2023-02-18T04:01:56;101639.47;;;13.92;69.70
22830;BME280;11581;51.250;6.778;2023-02-18T04:04:23;101615.81;;;13.78;69.83
22830;BME280;11581;51.250;6.778;2023-02-18T04:06:50;101637.22;;;13.87;70.08
22830;BME280;11581;51.250;6.778;2023-02-18T04:09:17;101623.28;;;13.74;70.19
22830;BME280;11581;51.250;6.778;2023-02-18T04:11:45;101638.66;;;13.82;70.59
22830;BME280;11581;51.250;6.778;2023-02-18T04:14:13;101575.31;;;13.44;70.37
22830;BME280;11581;51.250;6.778;2023-02-18T04:16:40;101601.91;;;13.65;70.54
22830;BME280;11581;51.250;6.778;2023-02-18T04:19:07;101540.53;;;13.25;70.67
22830;BME280;11581;51.250;6.778;2023-02-18T04:21:33;101619.94;;;13.72;70.69
22830;BME280;11581;51.250;6.778;2023-02-18T04:24:01;101611.09;;;13.62;70.91
22830;BME280;11581;51.250;6.778;2023-02-18T04:26:28;101550.81;;;13.20;70.84
22830;BME280;11581;51.250;6.778;2023-02-18T04:28:56;101636.75;;;13.65;71.19
22830;BME280;11581;51.250;6.778;2023-02-18T04:31:24;101620.81;;;13.63;71.12
22830;BME280;11581;51.250;6.778;2023-02-18T04:33:51;101625.47;;;13.61;71.35
22830;BME280;11581;51.250;6.778;2023-02-18T04:36:18;101540.72;;;13.14;71.40
22830;BME280;11581;51.250;6.778;2023-02-18T04:38:46;101618.72;;;13.57;71.40
22830;BME280;11581;51.250;6.778;2023-02-18T04:41:12;101608.28;;;13.54;71.36
22830;BME280;11581;51.250;6.778;2023-02-18T04:43:39;101613.94;;;13.51;71.44
22830;BME280;11581;51.250;6.778;2023-02-18T04:46:08;101597.13;;;13.49;71.78
22830;BME280;11581;51.250;6.778;2023-02-18T04:48:35;101563.25;;;13.21;71.57
22830;BME280;11581;51.250;6.778;2023-02-18T04:51:01;101593.34;;;13.42;72.06
22830;BME280;11581;51.250;6.778;2023-02-18T04:53:29;101583.53;;;13.33;72.05
22830;BME280;11581;51.250;6.778;2023-02-18T04:55:55;101588.56;;;13.36;72.32
22830;BME280;11581;51.250;6.778;2023-02-18T04:58:22;101595.94;;;13.34;72.30
22830;BME280;11581;51.250;6.778;2023-02-18T05:00:50;101590.00;;;13.30;72.57
22830;BME280;11581;51.250;6.778;2023-02-18T05:03:20;101567.50;;;13.14;72.90
22830;BME280;11581;51.250;6.778;2023-02-18T05:05:47;101596.50;;;13.28;72.64
22830;BME280;11581;51.250;6.778;2023-02-18T05:08:14;101548.63;;;12.96;72.90
22830;BME280;11581;51.250;6.778;2023-02-18T05:10:41;101582.41;;;13.26;73.05
22830;BME280;11581;51.250;6.778;2023-02-18T05:13:08;101588.63;;;13.26;72.97
22830;BME280;11581;51.250;6.778;2023-02-18T05:15:35;101577.03;;;13.26;72.85
22830;BME280;11581;51.250;6.778;2023-02-18T05:18:03;101541.16;;;13.00;73.09
22830;BME280;11581;51.250;6.778;2023-02-18T05:20:32;101533.94;;;12.91;73.22
22830;BME280;11581;51.250;6.778;2023-02-18T05:22:59;101515.06;;;12.92;73.27
22830;BME280;11581;51.250;6.778;2023-02-18T05:25:26;101541.28;;;13.08;73.28
22830;BME280;11581;51.250;6.778;2023-02-18T05:27:53;101556.19;;;13.20;73.42
22830;BME280;11581;51.250;6.778;2023-02-18T05:30:20;101549.16;;;13.19;73.44
22830;BME280;11581;51.250;6.778;2023-02-18T05:32:47;101494.41;;;12.85;73.38
22830;BME280;11581;51.250;6.778;2023-02-18T05:35:14;101524.66;;;13.04;73.54
22830;BME280;11581;51.250;6.778;2023-02-18T05:37:43;101545.09;;;13.15;73.74
22830;BME280;11581;51.250;6.778;2023-02-18T05:40:11;101491.44;;;12.88;73.79
22830;BME280;11581;51.250;6.778;2023-02-18T05:42:38;101399.13;;;12.36;73.57
22830;BME280;11581;51.250;6.778;2023-02-18T05:45:08;101530.28;;;13.11;73.77
22830;BME280;11581;51.250;6.778;2023-02-18T05:47:35;101520.56;;;13.10;73.75
22830;BME280;11581;51.250;6.778;2023-02-18T05:50:05;101526.91;;;13.09;73.83
22830;BME280;11581;51.250;6.778;2023-02-18T05:52:32;101518.16;;;13.07;73.94
22830;BME280;11581;51.250;6.778;2023-02-18T05:55:00;101305.75;;;11.78;74.15
22830;BME280;11581;51.250;6.778;2023-02-18T05:57:27;101534.56;;;13.04;74.14
22830;BME280;11581;51.250;6.778;2023-02-18T05:59:54;101499.16;;;12.91;74.19
22830;BME280;11581;51.250;6.778;2023-02-18T06:02:21;101449.22;;;12.63;74.36
22830;BME280;11581;51.250;6.778;2023-02-18T06:04:48;101522.41;;;13.00;74.42
22830;BME280;11581;51.250;6.778;2023-02-18T06:07:15;101516.25;;;12.99;74.63
22830;BME280;11581;51.250;6.778;2023-02-18T06:09:42;101517.16;;;12.98;74.56
22830;BME280;11581;51.250;6.778;2023-02-18T06:12:11;101448.25;;;12.54;74.82
22830;BME280;11581;51.250;6.778;2023-02-18T06:14:39;101509.13;;;12.98;74.76
22830;BME280;11581;51.250;6.778;2023-02-18T06:17:06;101521.00;;;12.96;74.70
22830;BME280;11581;51.250;6.778;2023-02-18T06:19:33;101514.91;;;12.94;74.84
22830;BME280;11581;51.250;6.778;2023-02-18T06:22:00;101518.44;;;12.94;75.00
22830;BME280;11581;51.250;6.778;2023-02-18T06:24:27;101521.97;;;12.95;75.02
22830;BME280;11581;51.250;6.778;2023-02-18T06:26:54;101520.13;;;12.95;75.10
22830;BME280;11581;51.250;6.778;2023-02-18T06:29:23;101483.16;;;12.72;75.36
22830;BME280;11581;51.250;6.778;2023-02-18T06:31:50;101470.72;;;12.71;75.12
22830;BME280;11581;51.250;6.778;2023-02-18T06:34:19;101512.94;;;12.96;75.12
22830;BME280;11581;51.250;6.778;2023-02-18T06:36:46;101516.50;;;12.96;75.21
22830;BME280;11581;51.250;6.778;2023-02-18T06:39:13;101511.81;;;12.98;75.21
22830;BME280;11581;51.250;6.778;2023-02-18T06:41:40;101510.88;;;12.99;75.00
22830;BME280;11581;51.250;6.778;2023-02-18T06:44:07;101507.19;;;13.00;74.88
22830;BME280;11581;51.250;6.778;2023-02-18T06:46:35;101515.09;;;13.02;74.93
22830;BME280;11581;51.250;6.778;2023-02-18T06:49:02;101514.81;;;13.05;74.49
22830;BME280;11581;51.250;6.778;2023-02-18T06:51:30;101502.00;;;12.99;74.38
22830;BME280;11581;51.250;6.778;2023-02-18T06:53:57;101519.16;;;13.06;74.13
22830;BME280;11581;51.250;6.778;2023-02-18T06:56:24;101527.91;;;13.08;74.10
22830;BME280;11581;51.250;6.778;2023-02-18T06:58:51;101517.19;;;13.08;73.91
22830;BME280;11581;51.250;6.778;2023-02-18T07:01:17;101497.75;;;12.96;73.53
22830;BME280;11581;51.250;6.778;2023-02-18T07:03:47;101523.22;;;13.10;73.53
22830;BME280;11581;51.250;6.778;2023-02-18T07:06:14;101528.28;;;13.13;73.37
22830;BME280;11581;51.250;6.778;2023-02-18T07:08:40;101506.06;;;13.03;73.13
22830;BME280;11581;51.250;6.778;2023-02-18T07:11:07;101504.63;;;13.18;73.13
22830;BME280;11581;51.250;6.778;2023-02-18T07:13:34;101534.75;;;13.20;73.15
22830;BME280;11581;51.250;6.778;2023-02-18T07:16:02;101522.06;;;13.22;72.62
22830;BME280;11581;51.250;6.778;2023-02-18T07:18:28;101526.28;;;13.24;72.66
22830;BME280;11581;51.250;6.778;2023-02-18T07:20:57;101530.53;;;13.27;72.54
22830;BME280;11581;51.250;6.778;2023-02-18T07:23:24;101524.88;;;13.30;72.39
22830;BME280;11581;51.250;6.778;2023-02-18T07:25:51;101512.16;;;13.32;72.29
22830;BME280;11581;51.250;6.778;2023-02-18T07:28:18;101526.94;;;13.36;72.09
22830;BME280;11581;51.250;6.778;2023-02-18T07:30:45;101502.53;;;13.39;71.91
22830;BME280;11581;51.250;6.778;2023-02-18T07:33:12;101515.66;;;13.42;71.69
22830;BME280;11581;51.250;6.778;2023-02-18T07:35:39;101502.31;;;13.32;71.79
22830;BME280;11581;51.250;6.778;2023-02-18T07:38:07;101487.97;;;13.24;71.56
22830;BME280;11581;51.250;6.778;2023-02-18T07:40:34;101529.16;;;13.50;71.45
22830;BME280;11581;51.250;6.778;2023-02-18T07:43:01;101525.69;;;13.40;71.30
22830;BME280;11581;51.250;6.778;2023-02-18T07:45:28;101483.44;;;13.24;71.20
22830;BME280;11581;51.250;6.778;2023-02-18T07:47:55;101522.00;;;13.41;71.23
22830;BME280;11581;51.250;6.778;2023-02-18T07:50:21;101483.78;;;13.12;71.20
22830;BME280;11581;51.250;6.778;2023-02-18T07:52:49;101551.00;;;13.55;71.01
22830;BME280;11581;51.250;6.778;2023-02-18T07:55:18;101556.50;;;13.53;70.84
22830;BME280;11581;51.250;6.778;2023-02-18T07:57:45;101538.13;;;13.31;70.79
22830;BME280;11581;51.250;6.778;2023-02-18T08:00:25;101539.81;;;13.23;70.72
22830;BME280;11581;51.250;6.778;2023-02-18T08:02:52;101571.03;;;13.51;70.66
22830;BME280;11581;51.250;6.778;2023-02-18T08:05:19;101575.69;;;13.49;70.54
22830;BME280;11581;51.250;6.778;2023-02-18T08:07:46;101575.03;;;13.47;70.41
22830;BME280;11581;51.250;6.778;2023-02-18T08:10:14;101568.28;;;13.43;70.28
22830;BME280;11581;51.250;6.778;2023-02-18T08:12:42;101578.56;;;13.38;70.07
22830;BME280;11581;51.250;6.778;2023-02-18T08:15:09;101553.13;;;13.15;70.11
22830;BME280;11581;51.250;6.778;2023-02-18T08:17:38;101501.16;;;12.79;70.27
22830;BME280;11581;51.250;6.778;2023-02-18T08:20:06;101586.38;;;13.22;70.24
22830;BME280;11581;51.250;6.778;2023-02-18T08:22:34;101564.69;;;13.06;70.33
22830;BME280;11581;51.250;6.778;2023-02-18T08:25:01;101597.94;;;13.13;70.72
22830;BME280;11581;51.250;6.778;2023-02-18T08:27:28;101589.22;;;13.11;70.63
22830;BME280;11581;51.250;6.778;2023-02-18T08:29:56;101594.56;;;13.11;70.60
22830;BME280;11581;51.250;6.778;2023-02-18T08:32:25;101587.50;;;13.10;70.94
22830;BME280;11581;51.250;6.778;2023-02-18T08:34:52;101590.03;;;13.11;70.64
22830;BME280;11581;51.250;6.778;2023-02-18T08:37:20;101581.88;;;13.13;70.64
22830;BME280;11581;51.250;6.778;2023-02-18T08:39:48;101576.22;;;13.16;70.26
22830;BME280;11581;51.250;6.778;2023-02-18T08:42:15;101574.94;;;13.20;70.44
22830;BME280;11581;51.250;6.778;2023-02-18T08:44:42;101569.16;;;13.24;70.38
22830;BME280;11581;51.250;6.778;2023-02-18T08:47:10;101592.81;;;13.29;70.11
22830;BME280;11581;51.250;6.778;2023-02-18T08:49:37;101538.19;;;13.03;70.09
22830;BME280;11581;51.250;6.778;2023-02-18T08:52:06;101589.84;;;13.41;69.87
22830;BME280;11581;51.250;6.778;2023-02-18T08:54:33;101549.13;;;13.28;69.87
22830;BME280;11581;51.250;6.778;2023-02-18T08:57:00;101585.44;;;13.50;69.46
22830;BME280;11581;51.250;6.778;2023-02-18T08:59:27;101585.16;;;13.53;68.95
22830;BME280;11581;51.250;6.778;2023-02-18T09:01:54;101506.06;;;13.12;68.37
22830;BME280;11581;51.250;6.778;2023-02-18T09:04:24;101565.09;;;13.57;68.21
22830;BME280;11581;51.250;6.778;2023-02-18T09:06:51;101543.72;;;13.48;67.88
22830;BME280;11581;51.250;6.778;2023-02-18T09:09:18;101578.22;;;13.60;67.59
22830;BME280;11581;51.250;6.778;2023-02-18T09:11:46;101560.09;;;13.44;67.79
22830;BME280;11581;51.250;6.778;2023-02-18T09:14:14;101504.34;;;13.11;67.47
22830;BME280;11581;51.250;6.778;2023-02-18T09:16:41;101565.34;;;13.64;67.32
22830;BME280;11581;51.250;6.778;2023-02-18T09:19:08;101567.88;;;13.65;66.95
22830;BME280;11581;51.250;6.778;2023-02-18T09:21:37;101502.03;;;13.26;66.45
22830;BME280;11581;51.250;6.778;2023-02-18T09:24:04;101507.38;;;13.26;66.53
22830;BME280;11581;51.250;6.778;2023-02-18T09:26:31;101563.94;;;13.69;66.46
22830;BME280;11581;51.250;6.778;2023-02-18T09:28:58;101531.78;;;13.60;66.19
22830;BME280;11581;51.250;6.778;2023-02-18T09:31:26;101552.06;;;13.72;65.80
22830;BME280;11581;51.250;6.778;2023-02-18T09:33:54;101515.78;;;13.40;65.78
22830;BME280;11581;51.250;6.778;2023-02-18T09:36:22;101559.09;;;13.73;65.69
22830;BME280;11581;51.250;6.778;2023-02-18T09:38:51;101428.53;;;13.11;65.36
22830;BME280;11581;51.250;6.778;2023-02-18T09:41:30;101554.59;;;13.73;64.94
22830;BME280;11581;51.250;6.778;2023-02-18T09:44:01;101546.56;;;13.73;65.17
22830;BME280;11581;51.250;6.778;2023-02-18T09:46:32;101484.00;;;13.28;65.13
22830;BME280;11581;51.250;6.778;2023-02-18T09:49:01;101552.78;;;13.74;65.31
22830;BME280;11581;51.250;6.778;2023-02-18T09:51:29;101479.72;;;13.35;65.33
22830;BME280;11581;51.250;6.778;2023-02-18T09:53:58;101525.00;;;13.65;65.11
22830;BME280;11581;51.250;6.778;2023-02-18T09:56:28;101546.97;;;13.78;65.06
22830;BME280;11581;51.250;6.778;2023-02-18T09:58:57;101430.91;;;13.14;65.26
22830;BME280;11581;51.250;6.778;2023-02-18T10:01:30;101470.25;;;13.40;64.90
22830;BME280;11581;51.250;6.778;2023-02-18T10:03:59;101533.63;;;13.86;64.90
22830;BME280;11581;51.250;6.778;2023-02-18T10:06:30;101507.72;;;13.77;64.63
22830;BME280;11581;51.250;6.778;2023-02-18T10:09:02;101527.69;;;13.92;64.16
22830;BME280;11581;51.250;6.778;2023-02-18T10:11:37;101526.00;;;13.91;63.93
22830;BME280;11581;51.250;6.778;2023-02-18T10:14:10;101525.38;;;13.97;64.39
22830;BME280;11581;51.250;6.778;2023-02-18T10:16:38;101533.28;;;13.99;64.32
22830;BME280;11581;51.250;6.778;2023-02-18T10:19:19;101526.22;;;13.98;63.46
22830;BME280;11581;51.250;6.778;2023-02-18T10:21:47;101528.06;;;13.97;63.81
22830;BME280;11581;51.250;6.778;2023-02-18T10:24:22;101525.28;;;13.89;63.27
22830;BME280;11581;51.250;6.778;2023-02-18T10:26:52;101506.13;;;13.84;63.98
22830;BME280;11581;51.250;6.778;2023-02-18T10:29:20;101517.56;;;13.86;63.92
22830;BME280;11581;51.250;6.778;2023-02-18T10:31:52;101539.50;;;13.99;64.07
22830;BME280;11581;51.250;6.778;2023-02-18T10:34:29;101513.06;;;13.77;64.30
22830;BME280;11581;51.250;6.778;2023-02-18T10:37:02;101559.63;;;14.03;64.73
22830;BME280;11581;51.250;6.778;2023-02-18T10:39:41;101548.84;;;13.95;64.64
22830;BME280;11581;51.250;6.778;2023-02-18T10:42:22;101545.00;;;13.98;64.90
22830;BME280;11581;51.250;6.778;2023-02-18T10:44:58;101573.41;;;13.91;65.03
22830;BME280;11581;51.250;6.778;2023-02-18T10:47:37;101478.63;;;13.28;65.29
22830;BME280;11581;51.250;6.778;2023-02-18T10:50:10;101575.75;;;13.76;65.42
22830;BME280;11581;51.250;6.778;2023-02-18T10:52:41;101522.66;;;13.52;65.77
22830;BME280;11581;51.250;6.778;2023-02-18T10:55:14;101515.72;;;13.23;65.99
22830;BME280;11581;51.250;6.778;2023-02-18T10:57:47;101571.03;;;13.61;66.52
22830;BME280;11581;51.250;6.778;2023-02-18T11:00:17;101570.47;;;13.57;66.49
22830;BME280;11581;51.250;6.778;2023-02-18T11:02:45;101574.16;;;13.56;66.73
22830;BME280;11581;51.250;6.778;2023-02-18T11:05:22;101573.88;;;13.49;67.55
22830;BME280;11581;51.250;6.778;2023-02-18T11:07:53;101570.19;;;13.50;67.36
22830;BME280;11581;51.250;6.778;2023-02-18T11:10:25;101583.75;;;13.49;67.74
22830;BME280;11581;51.250;6.778;2023-02-18T11:12:56;101553.06;;;13.34;67.60
22830;BME280;11581;51.250;6.778;2023-02-18T11:15:26;101538.19;;;13.12;68.04
22830;BME280;11581;51.250;6.778;2023-02-18T11:17:54;101557.19;;;13.28;68.26
22830;BME280;11581;51.250;6.778;2023-02-18T11:20:26;101580.38;;;13.37;68.61
22830;BME280;11581;51.250;6.778;2023-02-18T11:23:13;101579.00;;;13.33;68.97
22830;BME280;11581;51.250;6.778;2023-02-18T11:25:53;101485.97;;;12.70;69.61
22830;BME280;11581;51.250;6.778;2023-02-18T11:28:31;101563.28;;;13.02;69.76
22830;BME280;11581;51.250;6.778;2023-02-18T11:31:02;101522.84;;;12.86;69.19
22830;BME280;11581;51.250;6.778;2023-02-18T11:33:33;101591.19;;;13.18;69.81
22830;BME280;11581;51.250;6.778;2023-02-18T11:36:04;101586.25;;;13.14;70.05
22830;BME280;11581;51.250;6.778;2023-02-18T11:38:34;101571.88;;;13.15;70.18
22830;BME280;11581;51.250;6.778;2023-02-18T11:41:06;101551.16;;;12.98;70.67
22830;BME280;11581;51.250;6.778;2023-02-18T11:43:34;101579.91;;;13.15;70.42
22830;BME280;11581;51.250;6.778;2023-02-18T11:46:08;101564.97;;;13.03;71.03
22830;BME280;11581;51.250;6.778;2023-02-18T11:48:36;101530.44;;;12.81;70.42
22830;BME280;11581;51.250;6.778;2023-02-18T11:51:03;101577.38;;;13.13;70.58
22830;BME280;11581;51.250;6.778;2023-02-18T11:53:32;101577.22;;;13.15;70.62
22830;BME280;11581;51.250;6.778;2023-02-18T11:56:06;101577.06;;;13.07;71.19
22830;BME280;11581;51.250;6.778;2023-02-18T11:58:45;101569.19;;;13.15;70.79
22830;BME280;11581;51.250;6.778;2023-02-18T12:01:16;101595.97;;;13.15;70.82
22830;BME280;11581;51.250;6.778;2023-02-18T12:03:53;101586.25;;;13.14;71.33
22830;BME280;11581;51.250;6.778;2023-02-18T12:06:27;101581.88;;;13.13;71.57
22830;BME280;11581;51.250;6.778;2023-02-18T12:09:00;101586.53;;;13.11;71.50
22830;BME280;11581;51.250;6.778;2023-02-18T12:11:33;101573.97;;;13.11;72.03
22830;BME280;11581;51.250;6.778;2023-02-18T12:14:02;101532.28;;;12.90;71.78
22830;BME280;11581;51.250;6.778;2023-02-18T12:16:35;101566.94;;;13.10;72.33
22830;BME280;11581;51.250;6.778;2023-02-18T12:19:18;101505.38;;;12.82;72.59
22830;BME280;11581;51.250;6.778;2023-02-18T12:21:56;101548.91;;;13.03;72.21
22830;BME280;11581;51.250;6.778;2023-02-18T12:24:39;101530.69;;;12.97;72.65
22830;BME280;11581;51.250;6.778;2023-02-18T12:27:18;101564.97;;;13.03;72.55
22830;BME280;11581;51.250;6.778;2023-02-18T12:30:02;101553.56;;;13.01;72.89
22830;BME280;11581;51.250;6.778;2023-02-18T12:32:38;101561.72;;;13.09;72.65
22830;BME280;11581;51.250;6.778;2023-02-18T12:35:35;101560.72;;;13.10;73.53
22830;BME280;11581;51.250;6.778;2023-02-18T12:38:20;101554.13;;;13.14;73.46
22830;BME280;11581;51.250;6.778;2023-02-18T12:41:08;101391.53;;;12.13;73.26
22830;BME280;11581;51.250;6.778;2023-02-18T12:43:49;101564.22;;;13.20;73.03
22830;BME280;11581;51.250;6.778;2023-02-18T12:46:31;101573.97;;;13.21;72.85
22830;BME280;11581;51.250;6.778;2023-02-18T12:49:26;101558.47;;;13.15;73.20
22830;BME280;11581;51.250;6.778;2023-02-18T12:52:08;101510.28;;;12.96;72.91
22830;BME280;11581;51.250;6.778;2023-02-18T12:54:56;101560.97;;;13.26;73.28
22830;BME280;11581;51.250;6.778;2023-02-18T12:57:41;101544.94;;;13.16;73.11
22830;BME280;11581;51.250;6.778;2023-02-18T13:00:33;101468.06;;;12.71;73.64
22830;BME280;11581;51.250;6.778;2023-02-18T13:03:38;101491.44;;;12.88;73.49
22830;BME280;11581;51.250;6.778;2023-02-18T13:06:20;101557.13;;;13.38;73.35
22830;BME280;11581;51.250;6.778;2023-02-18T13:09:00;101538.13;;;13.31;73.38
22830;BME280;11581;51.250;6.778;2023-02-18T13:11:37;101537.72;;;13.26;73.39
22830;BME280;11581;51.250;6.778;2023-02-18T13:14:12;101560.09;;;13.44;72.90